sensor_id;sensor_type;location;lat;lon;timestamp;P1;durP1;ratioP1;P2;durP2;ratioP2
79414;SDS011;68864;44.972;19.612;2023-04-03T00:01:25;9.13;;;7.28;;
79414;SDS011;68864;44.972;19.612;2023-04-03T00:03:52;9.13;;;7.30;;
79414;SDS011;68864;44.972;19.612;2023-04-03T00:06:18;8.82;;;6.40;;
79414;SDS011;68864;44.972;19.612;2023-04-03T00:08:47;10.02;;;6.57;;
79414;SDS011;68864;44.972;19.612;2023-04-03T00:11:14;10.45;;;6.45;;
79414;SDS011;68864;44.972;19.612;2023-04-03T00:13:41;7.50;;;5.80;;
79414;SDS011;68864;44.972;19.612;2023-04-03T00:16:09;9.10;;;6.85;;
79414;SDS011;68864;44.972;19.612;2023-04-03T00:18:37;9.35;;;7.20;;
79414;SDS011;68864;44.972;19.612;2023-04-03T00:21:05;10.02;;;8.77;;
79414;SDS011;68864;44.972;19.612;2023-04-03T00:23:32;10.00;;;7.82;;
79414;SDS011;68864;44.972;19.612;2023-04-03T00:26:01;12.65;;;7.70;;
79414;SDS011;68864;44.972;19.612;2023-04-03T00:28:28;10.23;;;7.60;;
79414;SDS011;68864;44.972;19.612;2023-04-03T00:30:54;9.32;;;8.05;;
79414;SDS011;68864;44.972;19.612;2023-04-03T00:33:21;9.30;;;7.25;;
79414;SDS011;68864;44.972;19.612;2023-04-03T00:35:49;9.68;;;7.47;;
79414;SDS011;68864;44.972;19.612;2023-04-03T00:38:16;10.07;;;8.02;;
79414;SDS011;68864;44.972;19.612;2023-04-03T00:40:44;8.38;;;6.47;;
79414;SDS011;68864;44.972;19.612;2023-04-03T00:43:15;10.52;;;9.35;;
79414;SDS011;68864;44.972;19.612;2023-04-03T00:45:43;8.95;;;8.02;;
79414;SDS011;68864;44.972;19.612;2023-04-03T00:48:13;10.55;;;8.88;;
79414;SDS011;68864;44.972;19.612;2023-04-03T00:50:43;7.88;;;6.85;;
79414;SDS011;68864;44.972;19.612;2023-04-03T00:53:12;6.70;;;2.90;;
79414;SDS011;68864;44.972;19.612;2023-04-03T00:55:42;11.10;;;8.45;;
79414;SDS011;68864;44.972;19.612;2023-04-03T00:58:10;8.65;;;7.40;;
79414;SDS011;68864;44.972;19.612;2023-04-03T01:00:40;8.15;;;4.03;;
79414;SDS011;68864;44.972;19.612;2023-04-03T01:03:11;12.57;;;11.27;;
79414;SDS011;68864;44.972;19.612;2023-04-03T01:05:37;12.77;;;8.23;;
79414;SDS011;68864;44.972;19.612;2023-04-03T01:08:05;7.97;;;4.38;;
79414;SDS011;68864;44.972;19.612;2023-04-03T01:10:32;10.38;;;5.63;;
79414;SDS011;68864;44.972;19.612;2023-04-03T01:12:59;10.20;;;8.70;;
79414;SDS011;68864;44.972;19.612;2023-04-03T01:15:27;11.07;;;9.02;;
79414;SDS011;68864;44.972;19.612;2023-04-03T01:17:56;9.38;;;7.90;;
79414;SDS011;68864;44.972;19.612;2023-04-03T01:23:40;10.88;;;8.70;;
79414;SDS011;68864;44.972;19.612;2023-04-03T01:26:12;7.70;;;4.40;;
79414;SDS011;68864;44.972;19.612;2023-04-03T01:28:40;8.13;;;4.03;;
79414;SDS011;68864;44.972;19.612;2023-04-03T01:31:10;11.00;;;9.88;;
79414;SDS011;68864;44.972;19.612;2023-04-03T01:33:43;10.80;;;7.95;;
79414;SDS011;68864;44.972;19.612;2023-04-03T01:36:13;10.07;;;4.68;;
79414;SDS011;68864;44.972;19.612;2023-04-03T01:38:41;7.97;;;7.18;;
79414;SDS011;68864;44.972;19.612;2023-04-03T01:41:08;10.57;;;9.00;;
79414;SDS011;68864;44.972;19.612;2023-04-03T01:43:35;8.93;;;4.30;;
79414;SDS011;68864;44.972;19.612;2023-04-03T01:46:01;12.02;;;10.88;;
79414;SDS011;68864;44.972;19.612;2023-04-03T01:48:28;11.15;;;7.40;;
79414;SDS011;68864;44.972;19.612;2023-04-03T01:50:56;10.30;;;8.75;;
79414;SDS011;68864;44.972;19.612;2023-04-03T01:53:23;10.93;;;9.40;;
79414;SDS011;68864;44.972;19.612;2023-04-03T01:55:50;10.32;;;8.32;;
79414;SDS011;68864;44.972;19.612;2023-04-03T01:58:16;12.07;;;10.88;;
79414;SDS011;68864;44.972;19.612;2023-04-03T02:00:43;10.45;;;9.18;;
79414;SDS011;68864;44.972;19.612;2023-04-03T02:03:10;14.63;;;9.23;;
79414;SDS011;68864;44.972;19.612;2023-04-03T02:05:37;11.05;;;9.93;;
79414;SDS011;68864;44.972;19.612;2023-04-03T02:10:32;11.45;;;10.25;;
79414;SDS011;68864;44.972;19.612;2023-04-03T02:12:59;10.70;;;5.25;;
79414;SDS011;68864;44.972;19.612;2023-04-03T02:15:26;12.05;;;6.25;;
79414;SDS011;68864;44.972;19.612;2023-04-03T02:17:52;10.13;;;5.40;;
79414;SDS011;68864;44.972;19.612;2023-04-03T02:20:19;13.70;;;11.45;;
79414;SDS011;68864;44.972;19.612;2023-04-03T02:22:46;10.82;;;5.10;;
79414;SDS011;68864;44.972;19.612;2023-04-03T02:25:14;11.05;;;5.50;;
79414;SDS011;68864;44.972;19.612;2023-04-03T02:27:42;13.35;;;10.57;;
79414;SDS011;68864;44.972;19.612;2023-04-03T02:30:09;10.65;;;9.00;;
79414;SDS011;68864;44.972;19.612;2023-04-03T02:35:03;11.30;;;8.05;;
79414;SDS011;68864;44.972;19.612;2023-04-03T02:39:57;11.20;;;9.27;;
79414;SDS011;68864;44.972;19.612;2023-04-03T02:42:25;11.65;;;9.23;;
79414;SDS011;68864;44.972;19.612;2023-04-03T02:44:52;13.00;;;10.75;;
79414;SDS011;68864;44.972;19.612;2023-04-03T02:47:19;13.07;;;8.27;;
79414;SDS011;68864;44.972;19.612;2023-04-03T02:49:45;11.25;;;5.80;;
79414;SDS011;68864;44.972;19.612;2023-04-03T02:52:12;11.38;;;5.78;;
79414;SDS011;68864;44.972;19.612;2023-04-03T02:54:39;11.43;;;5.68;;
79414;SDS011;68864;44.972;19.612;2023-04-03T02:57:06;11.70;;;8.43;;
79414;SDS011;68864;44.972;19.612;2023-04-03T02:59:35;11.73;;;5.07;;
79414;SDS011;68864;44.972;19.612;2023-04-03T03:02:02;9.63;;;5.38;;
79414;SDS011;68864;44.972;19.612;2023-04-03T03:04:29;13.25;;;10.35;;
79414;SDS011;68864;44.972;19.612;2023-04-03T03:06:55;12.18;;;8.38;;
79414;SDS011;68864;44.972;19.612;2023-04-03T03:09:22;11.10;;;4.70;;
79414;SDS011;68864;44.972;19.612;2023-04-03T03:11:50;8.95;;;4.40;;
79414;SDS011;68864;44.972;19.612;2023-04-03T03:14:17;12.40;;;10.82;;
79414;SDS011;68864;44.972;19.612;2023-04-03T03:16:45;11.20;;;9.20;;
79414;SDS011;68864;44.972;19.612;2023-04-03T03:19:12;9.85;;;8.70;;
79414;SDS011;68864;44.972;19.612;2023-04-03T03:21:39;10.55;;;5.88;;
79414;SDS011;68864;44.972;19.612;2023-04-03T03:24:06;12.90;;;9.90;;
79414;SDS011;68864;44.972;19.612;2023-04-03T03:26:33;9.82;;;5.53;;
79414;SDS011;68864;44.972;19.612;2023-04-03T03:28:59;12.27;;;9.23;;
79414;SDS011;68864;44.972;19.612;2023-04-03T03:31:26;9.60;;;5.88;;
79414;SDS011;68864;44.972;19.612;2023-04-03T03:33:54;12.48;;;9.07;;
79414;SDS011;68864;44.972;19.612;2023-04-03T03:36:21;11.93;;;9.35;;
79414;SDS011;68864;44.972;19.612;2023-04-03T03:38:48;11.65;;;8.32;;
79414;SDS011;68864;44.972;19.612;2023-04-03T03:41:14;12.90;;;9.13;;
79414;SDS011;68864;44.972;19.612;2023-04-03T03:43:41;12.50;;;10.65;;
79414;SDS011;68864;44.972;19.612;2023-04-03T03:46:08;13.63;;;9.57;;
79414;SDS011;68864;44.972;19.612;2023-04-03T03:48:34;12.50;;;8.77;;
79414;SDS011;68864;44.972;19.612;2023-04-03T03:51:03;13.02;;;10.45;;
79414;SDS011;68864;44.972;19.612;2023-04-03T03:53:29;10.55;;;8.30;;
79414;SDS011;68864;44.972;19.612;2023-04-03T03:55:56;13.75;;;9.05;;
79414;SDS011;68864;44.972;19.612;2023-04-03T03:58:23;10.00;;;5.82;;
79414;SDS011;68864;44.972;19.612;2023-04-03T04:00:50;12.35;;;8.98;;
79414;SDS011;68864;44.972;19.612;2023-04-03T04:03:16;15.05;;;11.10;;
79414;SDS011;68864;44.972;19.612;2023-04-03T04:05:43;14.07;;;10.35;;
79414;SDS011;68864;44.972;19.612;2023-04-03T04:08:11;22.58;;;15.23;;
79414;SDS011;68864;44.972;19.612;2023-04-03T04:10:38;18.75;;;12.88;;
79414;SDS011;68864;44.972;19.612;2023-04-03T04:13:05;22.05;;;14.80;;
79414;SDS011;68864;44.972;19.612;2023-04-03T04:15:32;20.77;;;15.65;;
79414;SDS011;68864;44.972;19.612;2023-04-03T04:17:58;15.57;;;11.13;;
79414;SDS011;68864;44.972;19.612;2023-04-03T04:20:25;22.90;;;16.83;;
79414;SDS011;68864;44.972;19.612;2023-04-03T04:22:52;14.60;;;11.20;;
79414;SDS011;68864;44.972;19.612;2023-04-03T04:25:21;40.92;;;22.40;;
79414;SDS011;68864;44.972;19.612;2023-04-03T04:27:47;24.63;;;15.68;;
79414;SDS011;68864;44.972;19.612;2023-04-03T04:30:14;15.30;;;11.88;;
79414;SDS011;68864;44.972;19.612;2023-04-03T04:32:41;18.33;;;13.38;;
79414;SDS011;68864;44.972;19.612;2023-04-03T04:35:08;14.30;;;11.32;;
79414;SDS011;68864;44.972;19.612;2023-04-03T04:37:35;14.38;;;10.48;;
79414;SDS011;68864;44.972;19.612;2023-04-03T04:40:02;13.50;;;9.50;;
79414;SDS011;68864;44.972;19.612;2023-04-03T04:42:30;16.23;;;11.85;;
79414;SDS011;68864;44.972;19.612;2023-04-03T04:44:57;16.83;;;12.70;;
79414;SDS011;68864;44.972;19.612;2023-04-03T04:47:23;14.98;;;10.55;;
79414;SDS011;68864;44.972;19.612;2023-04-03T04:49:50;17.33;;;11.13;;
79414;SDS011;68864;44.972;19.612;2023-04-03T04:52:17;18.50;;;10.93;;
79414;SDS011;68864;44.972;19.612;2023-04-03T04:54:44;19.15;;;14.00;;
79414;SDS011;68864;44.972;19.612;2023-04-03T04:57:11;14.73;;;10.88;;
79414;SDS011;68864;44.972;19.612;2023-04-03T04:59:39;16.75;;;11.77;;
79414;SDS011;68864;44.972;19.612;2023-04-03T05:02:05;14.95;;;12.75;;
79414;SDS011;68864;44.972;19.612;2023-04-03T05:04:32;13.40;;;7.05;;
79414;SDS011;68864;44.972;19.612;2023-04-03T05:06:59;12.77;;;10.13;;
79414;SDS011;68864;44.972;19.612;2023-04-03T05:09:26;13.63;;;10.40;;
79414;SDS011;68864;44.972;19.612;2023-04-03T05:11:53;13.80;;;7.80;;
79414;SDS011;68864;44.972;19.612;2023-04-03T05:14:21;12.63;;;9.52;;
79414;SDS011;68864;44.972;19.612;2023-04-03T05:16:49;13.88;;;10.60;;
79414;SDS011;68864;44.972;19.612;2023-04-03T05:19:18;17.60;;;12.65;;
79414;SDS011;68864;44.972;19.612;2023-04-03T05:21:45;16.13;;;12.13;;
79414;SDS011;68864;44.972;19.612;2023-04-03T05:24:12;18.27;;;10.77;;
79414;SDS011;68864;44.972;19.612;2023-04-03T05:26:39;16.08;;;11.85;;
79414;SDS011;68864;44.972;19.612;2023-04-03T05:29:06;14.63;;;7.93;;
79414;SDS011;68864;44.972;19.612;2023-04-03T05:31:33;23.13;;;15.75;;
79414;SDS011;68864;44.972;19.612;2023-04-03T05:34:02;19.55;;;12.52;;
79414;SDS011;68864;44.972;19.612;2023-04-03T05:36:29;14.70;;;7.53;;
79414;SDS011;68864;44.972;19.612;2023-04-03T05:38:55;16.25;;;11.73;;
79414;SDS011;68864;44.972;19.612;2023-04-03T05:41:22;15.43;;;10.18;;
79414;SDS011;68864;44.972;19.612;2023-04-03T05:43:49;15.95;;;11.23;;
79414;SDS011;68864;44.972;19.612;2023-04-03T05:46:17;14.90;;;11.73;;
79414;SDS011;68864;44.972;19.612;2023-04-03T05:48:45;18.90;;;13.23;;
79414;SDS011;68864;44.972;19.612;2023-04-03T05:51:15;15.63;;;11.18;;
79414;SDS011;68864;44.972;19.612;2023-04-03T05:53:43;23.88;;;13.90;;
79414;SDS011;68864;44.972;19.612;2023-04-03T05:56:10;21.02;;;12.68;;
79414;SDS011;68864;44.972;19.612;2023-04-03T05:58:37;14.98;;;10.40;;
79414;SDS011;68864;44.972;19.612;2023-04-03T06:01:04;13.05;;;9.85;;
79414;SDS011;68864;44.972;19.612;2023-04-03T06:03:31;11.38;;;9.07;;
79414;SDS011;68864;44.972;19.612;2023-04-03T06:05:58;16.15;;;12.18;;
79414;SDS011;68864;44.972;19.612;2023-04-03T06:08:26;13.65;;;7.05;;
79414;SDS011;68864;44.972;19.612;2023-04-03T06:10:53;18.58;;;12.82;;
79414;SDS011;68864;44.972;19.612;2023-04-03T06:13:20;20.40;;;14.13;;
79414;SDS011;68864;44.972;19.612;2023-04-03T06:15:47;14.93;;;10.68;;
79414;SDS011;68864;44.972;19.612;2023-04-03T06:18:13;14.85;;;9.75;;
79414;SDS011;68864;44.972;19.612;2023-04-03T06:20:40;14.95;;;10.43;;
79414;SDS011;68864;44.972;19.612;2023-04-03T06:23:07;21.25;;;13.82;;
79414;SDS011;68864;44.972;19.612;2023-04-03T06:25:35;18.85;;;10.23;;
79414;SDS011;68864;44.972;19.612;2023-04-03T06:28:02;19.88;;;13.50;;
79414;SDS011;68864;44.972;19.612;2023-04-03T06:30:28;14.45;;;6.72;;
79414;SDS011;68864;44.972;19.612;2023-04-03T06:32:55;19.85;;;11.82;;
79414;SDS011;68864;44.972;19.612;2023-04-03T06:35:22;12.02;;;7.35;;
79414;SDS011;68864;44.972;19.612;2023-04-03T06:37:50;8.18;;;5.25;;
79414;SDS011;68864;44.972;19.612;2023-04-03T06:40:18;6.55;;;2.05;;
79414;SDS011;68864;44.972;19.612;2023-04-03T06:42:48;10.18;;;5.47;;
79414;SDS011;68864;44.972;19.612;2023-04-03T06:45:15;8.85;;;4.38;;
79414;SDS011;68864;44.972;19.612;2023-04-03T06:47:42;7.00;;;3.75;;
79414;SDS011;68864;44.972;19.612;2023-04-03T06:50:10;7.45;;;4.25;;
79414;SDS011;68864;44.972;19.612;2023-04-03T06:52:39;5.70;;;1.98;;
79414;SDS011;68864;44.972;19.612;2023-04-03T06:55:06;7.50;;;5.93;;
79414;SDS011;68864;44.972;19.612;2023-04-03T06:57:34;5.15;;;3.78;;
79414;SDS011;68864;44.972;19.612;2023-04-03T07:00:02;6.05;;;4.05;;
79414;SDS011;68864;44.972;19.612;2023-04-03T07:02:31;6.80;;;4.80;;
79414;SDS011;68864;44.972;19.612;2023-04-03T07:04:57;7.20;;;4.95;;
79414;SDS011;68864;44.972;19.612;2023-04-03T07:07:24;5.38;;;3.85;;
79414;SDS011;68864;44.972;19.612;2023-04-03T07:09:51;9.20;;;6.25;;
79414;SDS011;68864;44.972;19.612;2023-04-03T07:12:18;12.98;;;5.85;;
79414;SDS011;68864;44.972;19.612;2023-04-03T07:14:45;9.73;;;6.18;;
79414;SDS011;68864;44.972;19.612;2023-04-03T07:17:13;6.53;;;5.05;;
79414;SDS011;68864;44.972;19.612;2023-04-03T07:19:40;8.40;;;5.95;;
79414;SDS011;68864;44.972;19.612;2023-04-03T07:22:06;8.45;;;4.80;;
79414;SDS011;68864;44.972;19.612;2023-04-03T07:24:34;9.00;;;5.05;;
79414;SDS011;68864;44.972;19.612;2023-04-03T07:27:01;19.58;;;9.77;;
79414;SDS011;68864;44.972;19.612;2023-04-03T07:29:28;14.23;;;11.18;;
79414;SDS011;68864;44.972;19.612;2023-04-03T07:31:55;21.75;;;15.15;;
79414;SDS011;68864;44.972;19.612;2023-04-03T07:34:23;29.05;;;14.93;;
79414;SDS011;68864;44.972;19.612;2023-04-03T07:36:50;26.88;;;17.88;;
79414;SDS011;68864;44.972;19.612;2023-04-03T07:39:17;19.60;;;13.85;;
79414;SDS011;68864;44.972;19.612;2023-04-03T07:41:44;16.85;;;12.48;;
79414;SDS011;68864;44.972;19.612;2023-04-03T07:44:10;17.58;;;12.23;;
79414;SDS011;68864;44.972;19.612;2023-04-03T07:46:37;14.70;;;10.35;;
79414;SDS011;68864;44.972;19.612;2023-04-03T07:49:05;12.07;;;9.55;;
79414;SDS011;68864;44.972;19.612;2023-04-03T07:51:34;11.75;;;6.88;;
79414;SDS011;68864;44.972;19.612;2023-04-03T07:54:01;14.15;;;10.80;;
79414;SDS011;68864;44.972;19.612;2023-04-03T07:56:27;29.13;;;15.00;;
79414;SDS011;68864;44.972;19.612;2023-04-03T07:58:54;30.15;;;18.98;;
79414;SDS011;68864;44.972;19.612;2023-04-03T08:01:21;17.45;;;11.20;;
79414;SDS011;68864;44.972;19.612;2023-04-03T08:03:48;15.63;;;8.38;;
79414;SDS011;68864;44.972;19.612;2023-04-03T08:06:15;15.10;;;10.30;;
79414;SDS011;68864;44.972;19.612;2023-04-03T08:08:43;15.23;;;11.40;;
79414;SDS011;68864;44.972;19.612;2023-04-03T08:11:10;14.25;;;10.88;;
79414;SDS011;68864;44.972;19.612;2023-04-03T08:13:37;12.35;;;7.90;;
79414;SDS011;68864;44.972;19.612;2023-04-03T08:16:07;13.90;;;10.68;;
79414;SDS011;68864;44.972;19.612;2023-04-03T08:18:35;12.30;;;9.45;;
79414;SDS011;68864;44.972;19.612;2023-04-03T08:21:05;15.75;;;10.45;;
79414;SDS011;68864;44.972;19.612;2023-04-03T08:23:32;15.40;;;12.10;;
79414;SDS011;68864;44.972;19.612;2023-04-03T08:26:04;12.38;;;8.43;;
79414;SDS011;68864;44.972;19.612;2023-04-03T08:28:32;14.05;;;10.85;;
79414;SDS011;68864;44.972;19.612;2023-04-03T08:31:02;14.45;;;11.63;;
79414;SDS011;68864;44.972;19.612;2023-04-03T08:33:30;10.80;;;5.70;;
79414;SDS011;68864;44.972;19.612;2023-04-03T08:35:57;13.45;;;10.07;;
79414;SDS011;68864;44.972;19.612;2023-04-03T08:38:24;13.23;;;11.02;;
79414;SDS011;68864;44.972;19.612;2023-04-03T08:41:00;12.57;;;9.02;;
79414;SDS011;68864;44.972;19.612;2023-04-03T08:43:33;15.85;;;14.23;;
79414;SDS011;68864;44.972;19.612;2023-04-03T08:46:08;16.52;;;8.18;;
79414;SDS011;68864;44.972;19.612;2023-04-03T08:48:40;25.15;;;12.88;;
79414;SDS011;68864;44.972;19.612;2023-04-03T08:51:10;18.67;;;13.10;;
79414;SDS011;68864;44.972;19.612;2023-04-03T08:53:42;14.63;;;12.77;;
79414;SDS011;68864;44.972;19.612;2023-04-03T08:56:16;20.92;;;14.40;;
79414;SDS011;68864;44.972;19.612;2023-04-03T08:58:46;16.75;;;12.45;;
79414;SDS011;68864;44.972;19.612;2023-04-03T09:01:19;11.95;;;6.80;;
79414;SDS011;68864;44.972;19.612;2023-04-03T09:03:47;12.40;;;9.27;;
79414;SDS011;68864;44.972;19.612;2023-04-03T09:06:15;14.82;;;13.38;;
79414;SDS011;68864;44.972;19.612;2023-04-03T09:08:47;13.40;;;10.43;;
79414;SDS011;68864;44.972;19.612;2023-04-03T09:11:21;11.40;;;9.10;;
79414;SDS011;68864;44.972;19.612;2023-04-03T09:13:54;13.00;;;10.98;;
79414;SDS011;68864;44.972;19.612;2023-04-03T09:19:02;13.52;;;10.38;;
79414;SDS011;68864;44.972;19.612;2023-04-03T09:21:39;15.63;;;11.48;;
79414;SDS011;68864;44.972;19.612;2023-04-03T09:24:07;9.30;;;5.85;;
79414;SDS011;68864;44.972;19.612;2023-04-03T09:26:39;12.82;;;10.50;;
79414;SDS011;68864;44.972;19.612;2023-04-03T09:29:12;12.13;;;10.05;;
79414;SDS011;68864;44.972;19.612;2023-04-03T09:31:43;12.98;;;11.40;;
79414;SDS011;68864;44.972;19.612;2023-04-03T09:34:15;11.05;;;9.35;;
79414;SDS011;68864;44.972;19.612;2023-04-03T09:36:48;12.40;;;9.50;;
79414;SDS011;68864;44.972;19.612;2023-04-03T09:39:17;10.73;;;6.43;;
79414;SDS011;68864;44.972;19.612;2023-04-03T09:41:56;10.90;;;9.48;;
79414;SDS011;68864;44.972;19.612;2023-04-03T09:44:26;14.30;;;11.82;;
79414;SDS011;68864;44.972;19.612;2023-04-03T09:46:54;15.27;;;10.68;;
79414;SDS011;68864;44.972;19.612;2023-04-03T09:49:21;12.45;;;10.23;;
79414;SDS011;68864;44.972;19.612;2023-04-03T09:51:48;12.85;;;10.45;;
79414;SDS011;68864;44.972;19.612;2023-04-03T09:54:25;13.85;;;10.15;;
79414;SDS011;68864;44.972;19.612;2023-04-03T09:57:08;12.93;;;11.13;;
79414;SDS011;68864;44.972;19.612;2023-04-03T09:59:37;12.27;;;9.63;;
79414;SDS011;68864;44.972;19.612;2023-04-03T10:02:21;11.95;;;10.25;;
79414;SDS011;68864;44.972;19.612;2023-04-03T10:04:54;12.02;;;9.88;;
79414;SDS011;68864;44.972;19.612;2023-04-03T10:10:16;24.30;;;15.20;;
79414;SDS011;68864;44.972;19.612;2023-04-03T10:12:46;19.10;;;14.10;;
79414;SDS011;68864;44.972;19.612;2023-04-03T10:15:13;23.73;;;15.13;;
79414;SDS011;68864;44.972;19.612;2023-04-03T10:17:48;18.48;;;13.50;;
79414;SDS011;68864;44.972;19.612;2023-04-03T10:20:24;14.18;;;11.52;;
79414;SDS011;68864;44.972;19.612;2023-04-03T10:23:00;11.93;;;9.32;;
79414;SDS011;68864;44.972;19.612;2023-04-03T10:25:40;13.30;;;11.40;;
79414;SDS011;68864;44.972;19.612;2023-04-03T10:28:14;11.82;;;9.43;;
79414;SDS011;68864;44.972;19.612;2023-04-03T10:30:50;11.15;;;9.90;;
79414;SDS011;68864;44.972;19.612;2023-04-03T10:33:36;14.32;;;8.85;;
79414;SDS011;68864;44.972;19.612;2023-04-03T10:36:12;11.60;;;10.07;;
79414;SDS011;68864;44.972;19.612;2023-04-03T10:38:48;10.98;;;9.82;;
79414;SDS011;68864;44.972;19.612;2023-04-03T10:41:23;13.35;;;10.05;;
79414;SDS011;68864;44.972;19.612;2023-04-03T10:44:02;12.90;;;8.52;;
79414;SDS011;68864;44.972;19.612;2023-04-03T10:46:40;13.57;;;11.25;;
79414;SDS011;68864;44.972;19.612;2023-04-03T10:49:17;14.52;;;11.18;;
79414;SDS011;68864;44.972;19.612;2023-04-03T10:51:55;11.05;;;7.78;;
79414;SDS011;68864;44.972;19.612;2023-04-03T10:54:31;9.02;;;5.45;;
79414;SDS011;68864;44.972;19.612;2023-04-03T10:57:03;12.85;;;10.63;;
79414;SDS011;68864;44.972;19.612;2023-04-03T10:59:35;12.45;;;9.70;;
79414;SDS011;68864;44.972;19.612;2023-04-03T11:02:06;12.20;;;10.82;;
79414;SDS011;68864;44.972;19.612;2023-04-03T11:04:40;13.85;;;11.07;;
79414;SDS011;68864;44.972;19.612;2023-04-03T11:07:12;10.85;;;9.38;;
79414;SDS011;68864;44.972;19.612;2023-04-03T11:09:43;11.77;;;9.40;;
79414;SDS011;68864;44.972;19.612;2023-04-03T11:12:14;15.25;;;10.73;;
79414;SDS011;68864;44.972;19.612;2023-04-03T11:14:46;20.98;;;15.80;;
79414;SDS011;68864;44.972;19.612;2023-04-03T11:17:19;28.90;;;18.27;;
79414;SDS011;68864;44.972;19.612;2023-04-03T11:19:57;23.20;;;19.00;;
79414;SDS011;68864;44.972;19.612;2023-04-03T11:22:29;11.95;;;10.27;;
79414;SDS011;68864;44.972;19.612;2023-04-03T11:24:59;11.23;;;9.73;;
79414;SDS011;68864;44.972;19.612;2023-04-03T11:27:33;13.75;;;10.82;;
79414;SDS011;68864;44.972;19.612;2023-04-03T11:30:07;11.82;;;10.45;;
79414;SDS011;68864;44.972;19.612;2023-04-03T11:32:54;11.38;;;10.07;;
79414;SDS011;68864;44.972;19.612;2023-04-03T11:35:44;12.20;;;9.18;;
79414;SDS011;68864;44.972;19.612;2023-04-03T11:38:15;13.18;;;9.57;;
79414;SDS011;68864;44.972;19.612;2023-04-03T11:40:45;10.70;;;9.10;;
79414;SDS011;68864;44.972;19.612;2023-04-03T11:43:21;13.93;;;10.68;;
79414;SDS011;68864;44.972;19.612;2023-04-03T11:45:53;16.80;;;15.20;;
79414;SDS011;68864;44.972;19.612;2023-04-03T11:51:38;13.98;;;12.60;;
79414;SDS011;68864;44.972;19.612;2023-04-03T11:57:42;12.98;;;10.70;;
79414;SDS011;68864;44.972;19.612;2023-04-03T12:12:41;12.82;;;11.27;;
79414;SDS011;68864;44.972;19.612;2023-04-03T12:15:21;13.27;;;9.82;;
79414;SDS011;68864;44.972;19.612;2023-04-03T12:17:51;14.32;;;11.55;;
79414;SDS011;68864;44.972;19.612;2023-04-03T12:23:23;14.05;;;10.73;;
79414;SDS011;68864;44.972;19.612;2023-04-03T12:25:59;11.85;;;9.35;;
79414;SDS011;68864;44.972;19.612;2023-04-03T12:28:31;11.63;;;8.52;;
79414;SDS011;68864;44.972;19.612;2023-04-03T12:31:04;13.27;;;11.02;;
79414;SDS011;68864;44.972;19.612;2023-04-03T12:33:36;15.07;;;12.18;;
79414;SDS011;68864;44.972;19.612;2023-04-03T12:36:26;15.52;;;12.25;;
79414;SDS011;68864;44.972;19.612;2023-04-03T12:39:12;10.95;;;7.80;;
79414;SDS011;68864;44.972;19.612;2023-04-03T12:41:50;18.75;;;13.82;;
79414;SDS011;68864;44.972;19.612;2023-04-03T12:44:27;18.58;;;14.60;;
79414;SDS011;68864;44.972;19.612;2023-04-03T12:47:07;21.65;;;14.30;;
79414;SDS011;68864;44.972;19.612;2023-04-03T12:49:47;22.50;;;14.18;;
79414;SDS011;68864;44.972;19.612;2023-04-03T12:52:19;15.38;;;12.25;;
79414;SDS011;68864;44.972;19.612;2023-04-03T12:54:53;13.23;;;9.98;;
79414;SDS011;68864;44.972;19.612;2023-04-03T12:57:22;11.15;;;8.27;;
79414;SDS011;68864;44.972;19.612;2023-04-03T12:59:51;15.02;;;11.05;;
79414;SDS011;68864;44.972;19.612;2023-04-03T13:02:22;11.85;;;9.80;;
79414;SDS011;68864;44.972;19.612;2023-04-03T13:04:53;11.60;;;9.43;;
79414;SDS011;68864;44.972;19.612;2023-04-03T13:07:24;10.32;;;6.03;;
79414;SDS011;68864;44.972;19.612;2023-04-03T13:09:56;10.70;;;6.22;;
79414;SDS011;68864;44.972;19.612;2023-04-03T13:12:25;13.05;;;10.18;;
79414;SDS011;68864;44.972;19.612;2023-04-03T13:14:52;11.43;;;6.70;;
79414;SDS011;68864;44.972;19.612;2023-04-03T13:17:20;14.68;;;10.30;;
79414;SDS011;68864;44.972;19.612;2023-04-03T13:19:48;14.02;;;10.35;;
79414;SDS011;68864;44.972;19.612;2023-04-03T13:22:22;14.77;;;6.90;;
79414;SDS011;68864;44.972;19.612;2023-04-03T13:24:54;11.55;;;9.82;;
79414;SDS011;68864;44.972;19.612;2023-04-03T13:27:24;13.10;;;9.93;;
79414;SDS011;68864;44.972;19.612;2023-04-03T13:29:52;13.07;;;10.77;;
79414;SDS011;68864;44.972;19.612;2023-04-03T13:32:23;12.20;;;9.75;;
79414;SDS011;68864;44.972;19.612;2023-04-03T13:34:52;15.70;;;12.65;;
79414;SDS011;68864;44.972;19.612;2023-04-03T13:37:21;14.15;;;10.18;;
79414;SDS011;68864;44.972;19.612;2023-04-03T13:39:58;13.90;;;6.45;;
79414;SDS011;68864;44.972;19.612;2023-04-03T13:42:30;14.80;;;11.05;;
79414;SDS011;68864;44.972;19.612;2023-04-03T13:47:54;18.92;;;13.50;;
79414;SDS011;68864;44.972;19.612;2023-04-03T13:55:29;28.92;;;15.70;;
79414;SDS011;68864;44.972;19.612;2023-04-03T13:57:58;18.50;;;14.88;;
79414;SDS011;68864;44.972;19.612;2023-04-03T14:00:32;14.02;;;8.32;;
79414;SDS011;68864;44.972;19.612;2023-04-03T14:03:03;18.08;;;11.90;;
79414;SDS011;68864;44.972;19.612;2023-04-03T14:05:39;14.15;;;11.82;;
79414;SDS011;68864;44.972;19.612;2023-04-03T14:08:07;14.57;;;10.80;;
79414;SDS011;68864;44.972;19.612;2023-04-03T14:10:35;17.35;;;14.30;;
79414;SDS011;68864;44.972;19.612;2023-04-03T14:13:02;15.80;;;12.43;;
79414;SDS011;68864;44.972;19.612;2023-04-03T14:15:30;17.63;;;14.20;;
79414;SDS011;68864;44.972;19.612;2023-04-03T14:17:58;17.20;;;13.00;;
79414;SDS011;68864;44.972;19.612;2023-04-03T14:20:26;18.98;;;14.52;;
79414;SDS011;68864;44.972;19.612;2023-04-03T14:22:53;16.45;;;12.73;;
79414;SDS011;68864;44.972;19.612;2023-04-03T14:25:22;16.85;;;10.25;;
79414;SDS011;68864;44.972;19.612;2023-04-03T14:27:51;17.23;;;12.80;;
79414;SDS011;68864;44.972;19.612;2023-04-03T14:30:20;22.25;;;14.93;;
79414;SDS011;68864;44.972;19.612;2023-04-03T14:32:49;29.60;;;18.58;;
79414;SDS011;68864;44.972;19.612;2023-04-03T14:35:17;30.80;;;19.58;;
79414;SDS011;68864;44.972;19.612;2023-04-03T14:37:45;39.35;;;22.35;;
79414;SDS011;68864;44.972;19.612;2023-04-03T14:40:14;35.63;;;17.35;;
79414;SDS011;68864;44.972;19.612;2023-04-03T14:42:43;35.97;;;21.88;;
79414;SDS011;68864;44.972;19.612;2023-04-03T14:45:12;19.13;;;12.93;;
79414;SDS011;68864;44.972;19.612;2023-04-03T14:47:40;17.77;;;10.38;;
79414;SDS011;68864;44.972;19.612;2023-04-03T14:50:12;18.75;;;13.90;;
79414;SDS011;68864;44.972;19.612;2023-04-03T14:52:42;14.25;;;8.52;;
79414;SDS011;68864;44.972;19.612;2023-04-03T14:55:11;14.65;;;12.30;;
79414;SDS011;68864;44.972;19.612;2023-04-03T14:57:39;14.90;;;12.10;;
79414;SDS011;68864;44.972;19.612;2023-04-03T15:00:11;14.15;;;11.63;;
79414;SDS011;68864;44.972;19.612;2023-04-03T15:02:40;12.88;;;9.80;;
79414;SDS011;68864;44.972;19.612;2023-04-03T15:05:08;13.05;;;8.68;;
79414;SDS011;68864;44.972;19.612;2023-04-03T15:07:36;12.85;;;10.00;;
79414;SDS011;68864;44.972;19.612;2023-04-03T15:10:13;11.15;;;8.15;;
79414;SDS011;68864;44.972;19.612;2023-04-03T15:12:42;10.50;;;8.05;;
79414;SDS011;68864;44.972;19.612;2023-04-03T15:15:11;12.68;;;11.05;;